sensor_id;sensor_type;location;lat;lon;timestamp;temperature;humidity
66752;SHT31;53663;42.676;23.238;2022-12-18T00:00:29;7.98;80.99
66752;SHT31;53663;42.676;23.238;2022-12-18T00:02:55;7.95;80.80
66752;SHT31;53663;42.676;23.238;2022-12-18T00:05:21;7.87;81.06
66752;SHT31;53663;42.676;23.238;2022-12-18T00:07:46;7.80;80.84
66752;SHT31;53663;42.676;23.238;2022-12-18T00:10:12;7.77;80.78
66752;SHT31;53663;42.676;23.238;2022-12-18T00:12:37;7.83;80.72
66752;SHT31;53663;42.676;23.238;2022-12-18T00:15:03;7.77;80.58
66752;SHT31;53663;42.676;23.238;2022-12-18T00:17:29;7.78;80.72
66752;SHT31;53663;42.676;23.238;2022-12-18T00:19:54;7.78;80.66
66752;SHT31;53663;42.676;23.238;2022-12-18T00:22:20;7.67;80.63
66752;SHT31;53663;42.676;23.238;2022-12-18T00:24:45;7.57;80.63
66752;SHT31;53663;42.676;23.238;2022-12-18T00:27:11;7.53;80.87
66752;SHT31;53663;42.676;23.238;2022-12-18T00:29:39;7.60;80.85
66752;SHT31;53663;42.676;23.238;2022-12-18T00:32:04;7.60;80.81
66752;SHT31;53663;42.676;23.238;2022-12-18T00:34:30;7.66;80.63
66752;SHT31;53663;42.676;23.238;2022-12-18T00:36:55;7.64;80.01
66752;SHT31;53663;42.676;23.238;2022-12-18T00:39:21;7.59;80.31
66752;SHT31;53663;42.676;23.238;2022-12-18T00:41:46;7.52;80.01
66752;SHT31;53663;42.676;23.238;2022-12-18T00:44:31;7.54;80.03
66752;SHT31;53663;42.676;23.238;2022-12-18T00:46:57;7.43;80.36
66752;SHT31;53663;42.676;23.238;2022-12-18T00:49:22;7.45;80.39
66752;SHT31;53663;42.676;23.238;2022-12-18T00:51:48;7.39;80.24
66752;SHT31;53663;42.676;23.238;2022-12-18T00:54:15;7.26;79.92
66752;SHT31;53663;42.676;23.238;2022-12-18T00:56:40;7.30;80.27
66752;SHT31;53663;42.676;23.238;2022-12-18T00:59:06;7.25;79.95
66752;SHT31;53663;42.676;23.238;2022-12-18T01:01:32;7.19;79.96
66752;SHT31;53663;42.676;23.238;2022-12-18T01:04:00;7.18;80.13
66752;SHT31;53663;42.676;23.238;2022-12-18T01:06:25;7.16;79.93
66752;SHT31;53663;42.676;23.238;2022-12-18T01:08:51;7.12;79.90
66752;SHT31;53663;42.676;23.238;2022-12-18T01:11:19;7.09;79.99
66752;SHT31;53663;42.676;23.238;2022-12-18T01:13:45;7.02;79.99
66752;SHT31;53663;42.676;23.238;2022-12-18T01:16:15;7.01;80.20
66752;SHT31;53663;42.676;23.238;2022-12-18T01:18:41;7.04;80.17
66752;SHT31;53663;42.676;23.238;2022-12-18T01:21:08;6.94;80.38
66752;SHT31;53663;42.676;23.238;2022-12-18T01:23:36;6.97;80.39
66752;SHT31;53663;42.676;23.238;2022-12-18T01:26:07;6.87;80.49
66752;SHT31;53663;42.676;23.238;2022-12-18T01:28:34;6.91;80.49
66752;SHT31;53663;42.676;23.238;2022-12-18T01:31:31;6.94;80.12
66752;SHT31;53663;42.676;23.238;2022-12-18T01:33:57;6.84;79.65
66752;SHT31;53663;42.676;23.238;2022-12-18T01:36:28;6.85;80.03
66752;SHT31;53663;42.676;23.238;2022-12-18T01:38:55;6.83;79.62
66752;SHT31;53663;42.676;23.238;2022-12-18T01:41:26;6.70;80.01
66752;SHT31;53663;42.676;23.238;2022-12-18T01:43:56;6.76;80.60
66752;SHT31;53663;42.676;23.238;2022-12-18T01:46:23;6.84;80.13
66752;SHT31;53663;42.676;23.238;2022-12-18T01:48:57;6.80;80.04
66752;SHT31;53663;42.676;23.238;2022-12-18T01:51:27;6.80;80.14
66752;SHT31;53663;42.676;23.238;2022-12-18T01:53:53;6.81;79.87
66752;SHT31;53663;42.676;23.238;2022-12-18T01:56:20;6.81;79.55
66752;SHT31;53663;42.676;23.238;2022-12-18T01:58:54;6.71;79.83
66752;SHT31;53663;42.676;23.238;2022-12-18T02:01:23;6.73;80.08
66752;SHT31;53663;42.676;23.238;2022-12-18T02:03:49;6.68;80.40
66752;SHT31;53663;42.676;23.238;2022-12-18T02:06:33;6.68;80.56
66752;SHT31;53663;42.676;23.238;2022-12-18T02:09:38;6.71;80.34
66752;SHT31;53663;42.676;23.238;2022-12-18T02:12:17;6.76;79.91
66752;SHT31;53663;42.676;23.238;2022-12-18T02:17:55;6.67;80.40
66752;SHT31;53663;42.676;23.238;2022-12-18T02:20:33;6.57;80.95
66752;SHT31;53663;42.676;23.238;2022-12-18T02:26:20;6.66;80.49
66752;SHT31;53663;42.676;23.238;2022-12-18T02:31:22;6.70;80.39
66752;SHT31;53663;42.676;23.238;2022-12-18T02:33:51;6.70;80.15
66752;SHT31;53663;42.676;23.238;2022-12-18T02:36:19;6.66;80.05
66752;SHT31;53663;42.676;23.238;2022-12-18T02:38:47;6.57;79.81
66752;SHT31;53663;42.676;23.238;2022-12-18T02:41:15;6.41;79.68
66752;SHT31;53663;42.676;23.238;2022-12-18T02:44:06;6.34;79.85
66752;SHT31;53663;42.676;23.238;2022-12-18T02:46:35;6.39;79.79
66752;SHT31;53663;42.676;23.238;2022-12-18T02:49:16;6.34;79.68
66752;SHT31;53663;42.676;23.238;2022-12-18T02:51:52;6.27;79.76
66752;SHT31;53663;42.676;23.238;2022-12-18T02:56:58;6.36;79.83
66752;SHT31;53663;42.676;23.238;2022-12-18T02:59:40;6.37;79.80
66752;SHT31;53663;42.676;23.238;2022-12-18T03:05:09;6.20;80.16
66752;SHT31;53663;42.676;23.238;2022-12-18T03:07:46;6.03;79.87
66752;SHT31;53663;42.676;23.238;2022-12-18T03:10:16;6.06;80.47
66752;SHT31;53663;42.676;23.238;2022-12-18T03:12:49;6.05;80.35
66752;SHT31;53663;42.676;23.238;2022-12-18T03:15:23;6.06;79.90
66752;SHT31;53663;42.676;23.238;2022-12-18T03:17:59;5.99;79.83
66752;SHT31;53663;42.676;23.238;2022-12-18T03:20:31;5.98;80.03
66752;SHT31;53663;42.676;23.238;2022-12-18T03:23:04;5.94;80.17
66752;SHT31;53663;42.676;23.238;2022-12-18T03:25:32;5.95;79.95
66752;SHT31;53663;42.676;23.238;2022-12-18T03:28:01;5.89;79.84
66752;SHT31;53663;42.676;23.238;2022-12-18T03:30:29;5.82;80.28
66752;SHT31;53663;42.676;23.238;2022-12-18T03:33:04;5.67;80.32
66752;SHT31;53663;42.676;23.238;2022-12-18T03:35:34;5.57;80.45
66752;SHT31;53663;42.676;23.238;2022-12-18T03:38:00;5.54;80.69
66752;SHT31;53663;42.676;23.238;2022-12-18T03:43:20;5.52;80.70
66752;SHT31;53663;42.676;23.238;2022-12-18T03:45:54;5.55;80.50
66752;SHT31;53663;42.676;23.238;2022-12-18T03:48:28;5.51;80.46
66752;SHT31;53663;42.676;23.238;2022-12-18T03:54:02;5.50;80.68
66752;SHT31;53663;42.676;23.238;2022-12-18T03:56:36;5.47;80.49
66752;SHT31;53663;42.676;23.238;2022-12-18T03:59:05;5.44;80.36
66752;SHT31;53663;42.676;23.238;2022-12-18T04:01:36;5.33;80.52
66752;SHT31;53663;42.676;23.238;2022-12-18T04:04:04;5.31;80.78
66752;SHT31;53663;42.676;23.238;2022-12-18T04:06:33;5.27;80.61
66752;SHT31;53663;42.676;23.238;2022-12-18T04:09:00;5.33;80.58
66752;SHT31;53663;42.676;23.238;2022-12-18T04:11:26;5.30;80.54
66752;SHT31;53663;42.676;23.238;2022-12-18T04:13:56;5.24;79.96
66752;SHT31;53663;42.676;23.238;2022-12-18T04:16:23;5.20;80.35
66752;SHT31;53663;42.676;23.238;2022-12-18T04:18:53;5.19;80.47
66752;SHT31;53663;42.676;23.238;2022-12-18T04:21:19;5.23;80.52
66752;SHT31;53663;42.676;23.238;2022-12-18T04:23:46;5.26;80.07
66752;SHT31;53663;42.676;23.238;2022-12-18T04:26:12;5.23;79.89
66752;SHT31;53663;42.676;23.238;2022-12-18T04:28:53;5.19;80.17
66752;SHT31;53663;42.676;23.238;2022-12-18T04:31:18;5.20;80.19
66752;SHT31;53663;42.676;23.238;2022-12-18T04:33:44;5.13;80.00
66752;SHT31;53663;42.676;23.238;2022-12-18T04:36:09;5.10;79.58
66752;SHT31;53663;42.676;23.238;2022-12-18T04:38:38;5.18;78.73
66752;SHT31;53663;42.676;23.238;2022-12-18T04:41:07;5.18;78.94
66752;SHT31;53663;42.676;23.238;2022-12-18T04:43:33;5.18;78.93
66752;SHT31;53663;42.676;23.238;2022-12-18T04:46:06;5.20;78.92
66752;SHT31;53663;42.676;23.238;2022-12-18T04:48:32;5.19;78.54
66752;SHT31;53663;42.676;23.238;2022-12-18T04:50:58;5.20;78.98
66752;SHT31;53663;42.676;23.238;2022-12-18T04:53:24;5.20;79.02
66752;SHT31;53663;42.676;23.238;2022-12-18T04:55:49;5.19;78.99
66752;SHT31;53663;42.676;23.238;2022-12-18T04:58:15;5.24;78.88
66752;SHT31;53663;42.676;23.238;2022-12-18T05:00:41;5.31;78.46
66752;SHT31;53663;42.676;23.238;2022-12-18T05:03:06;5.27;78.20
66752;SHT31;53663;42.676;23.238;2022-12-18T05:05:34;5.31;78.21
66752;SHT31;53663;42.676;23.238;2022-12-18T05:08:00;5.31;78.23
66752;SHT31;53663;42.676;23.238;2022-12-18T05:10:25;5.31;78.25
66752;SHT31;53663;42.676;23.238;2022-12-18T05:12:51;5.31;78.10
66752;SHT31;53663;42.676;23.238;2022-12-18T05:15:32;5.36;78.08
66752;SHT31;53663;42.676;23.238;2022-12-18T05:17:58;5.37;78.21
66752;SHT31;53663;42.676;23.238;2022-12-18T05:20:25;5.43;78.32
66752;SHT31;53663;42.676;23.238;2022-12-18T05:22:51;5.46;77.81
66752;SHT31;53663;42.676;23.238;2022-12-18T05:25:17;5.33;78.07
66752;SHT31;53663;42.676;23.238;2022-12-18T05:27:43;5.31;78.18
66752;SHT31;53663;42.676;23.238;2022-12-18T05:30:10;5.24;78.61
66752;SHT31;53663;42.676;23.238;2022-12-18T05:32:35;5.24;78.00
66752;SHT31;53663;42.676;23.238;2022-12-18T05:35:01;5.19;78.17
66752;SHT31;53663;42.676;23.238;2022-12-18T05:37:27;5.12;77.83
66752;SHT31;53663;42.676;23.238;2022-12-18T05:39:52;5.18;77.79
66752;SHT31;53663;42.676;23.238;2022-12-18T05:42:18;5.12;78.32
66752;SHT31;53663;42.676;23.238;2022-12-18T05:44:43;5.24;78.23
66752;SHT31;53663;42.676;23.238;2022-12-18T05:47:09;5.22;77.72
66752;SHT31;53663;42.676;23.238;2022-12-18T05:49:34;5.13;77.93
66752;SHT31;53663;42.676;23.238;2022-12-18T05:52:00;5.00;78.10
66752;SHT31;53663;42.676;23.238;2022-12-18T05:54:29;4.95;78.06
66752;SHT31;53663;42.676;23.238;2022-12-18T05:56:55;4.96;78.51
66752;SHT31;53663;42.676;23.238;2022-12-18T05:59:20;5.02;78.47
66752;SHT31;53663;42.676;23.238;2022-12-18T06:01:46;5.08;78.44
66752;SHT31;53663;42.676;23.238;2022-12-18T06:04:12;5.05;77.96
66752;SHT31;53663;42.676;23.238;2022-12-18T06:06:37;5.00;78.07
66752;SHT31;53663;42.676;23.238;2022-12-18T06:09:03;4.96;77.81
66752;SHT31;53663;42.676;23.238;2022-12-18T06:11:34;4.97;77.89
66752;SHT31;53663;42.676;23.238;2022-12-18T06:14:00;4.93;77.57
66752;SHT31;53663;42.676;23.238;2022-12-18T06:16:27;4.93;77.96
66752;SHT31;53663;42.676;23.238;2022-12-18T06:18:56;4.91;77.68
66752;SHT31;53663;42.676;23.238;2022-12-18T06:21:21;4.88;77.79
66752;SHT31;53663;42.676;23.238;2022-12-18T06:23:47;4.81;77.44
66752;SHT31;53663;42.676;23.238;2022-12-18T06:26:13;4.81;77.09
66752;SHT31;53663;42.676;23.238;2022-12-18T06:28:39;4.85;77.26
66752;SHT31;53663;42.676;23.238;2022-12-18T06:31:05;4.83;76.92
66752;SHT31;53663;42.676;23.238;2022-12-18T06:33:32;4.82;77.19
66752;SHT31;53663;42.676;23.238;2022-12-18T06:36:06;4.79;77.41
66752;SHT31;53663;42.676;23.238;2022-12-18T06:38:35;4.83;77.37
66752;SHT31;53663;42.676;23.238;2022-12-18T06:41:07;4.82;77.49
66752;SHT31;53663;42.676;23.238;2022-12-18T06:43:33;4.85;77.39
66752;SHT31;53663;42.676;23.238;2022-12-18T06:46:02;4.95;77.46
66752;SHT31;53663;42.676;23.238;2022-12-18T06:48:28;4.91;77.36
66752;SHT31;53663;42.676;23.238;2022-12-18T06:50:53;4.95;77.25
66752;SHT31;53663;42.676;23.238;2022-12-18T06:53:19;4.95;77.01
66752;SHT31;53663;42.676;23.238;2022-12-18T06:55:44;4.92;77.08
66752;SHT31;53663;42.676;23.238;2022-12-18T06:58:10;4.89;76.82
66752;SHT31;53663;42.676;23.238;2022-12-18T07:00:35;4.83;77.21
66752;SHT31;53663;42.676;23.238;2022-12-18T07:03:01;4.83;76.97
66752;SHT31;53663;42.676;23.238;2022-12-18T07:05:26;4.78;77.07
66752;SHT31;53663;42.676;23.238;2022-12-18T07:07:52;4.79;77.16
66752;SHT31;53663;42.676;23.238;2022-12-18T07:10:17;4.79;77.18
66752;SHT31;53663;42.676;23.238;2022-12-18T07:12:43;4.83;76.73
66752;SHT31;53663;42.676;23.238;2022-12-18T07:15:09;4.83;76.52
66752;SHT31;53663;42.676;23.238;2022-12-18T07:17:34;4.85;76.78
66752;SHT31;53663;42.676;23.238;2022-12-18T07:20:00;4.91;76.44
66752;SHT31;53663;42.676;23.238;2022-12-18T07:22:26;4.92;76.35
66752;SHT31;53663;42.676;23.238;2022-12-18T07:24:52;4.96;75.97
66752;SHT31;53663;42.676;23.238;2022-12-18T07:27:17;4.93;76.29
66752;SHT31;53663;42.676;23.238;2022-12-18T07:29:43;4.97;76.23
66752;SHT31;53663;42.676;23.238;2022-12-18T07:32:08;4.96;76.07
66752;SHT31;53663;42.676;23.238;2022-12-18T07:34:34;4.99;76.17
66752;SHT31;53663;42.676;23.238;2022-12-18T07:36:59;4.99;76.17
66752;SHT31;53663;42.676;23.238;2022-12-18T07:39:25;5.00;76.18
66752;SHT31;53663;42.676;23.238;2022-12-18T07:41:50;4.88;76.86
66752;SHT31;53663;42.676;23.238;2022-12-18T07:44:35;5.00;76.88
66752;SHT31;53663;42.676;23.238;2022-12-18T07:47:01;5.03;76.42
66752;SHT31;53663;42.676;23.238;2022-12-18T07:49:27;5.03;76.34
66752;SHT31;53663;42.676;23.238;2022-12-18T07:51:55;5.08;76.97
66752;SHT31;53663;42.676;23.238;2022-12-18T07:54:22;4.96;76.26
66752;SHT31;53663;42.676;23.238;2022-12-18T07:56:47;5.05;76.26
66752;SHT31;53663;42.676;23.238;2022-12-18T07:59:13;5.05;75.82
66752;SHT31;53663;42.676;23.238;2022-12-18T08:01:38;5.12;75.96
66752;SHT31;53663;42.676;23.238;2022-12-18T08:04:04;4.93;75.55
66752;SHT31;53663;42.676;23.238;2022-12-18T08:06:29;4.92;75.83
66752;SHT31;53663;42.676;23.238;2022-12-18T08:08:55;4.92;75.88
66752;SHT31;53663;42.676;23.238;2022-12-18T08:11:22;4.92;75.89
66752;SHT31;53663;42.676;23.238;2022-12-18T08:13:48;4.85;76.04
66752;SHT31;53663;42.676;23.238;2022-12-18T08:16:14;4.85;76.68
66752;SHT31;53663;42.676;23.238;2022-12-18T08:18:39;4.83;76.27
66752;SHT31;53663;42.676;23.238;2022-12-18T08:21:20;4.76;75.87
66752;SHT31;53663;42.676;23.238;2022-12-18T08:23:48;4.76;76.08
66752;SHT31;53663;42.676;23.238;2022-12-18T08:26:14;4.82;76.25
66752;SHT31;53663;42.676;23.238;2022-12-18T08:28:40;4.82;76.15
66752;SHT31;53663;42.676;23.238;2022-12-18T08:31:06;4.89;76.13
66752;SHT31;53663;42.676;23.238;2022-12-18T08:33:33;4.96;76.28
66752;SHT31;53663;42.676;23.238;2022-12-18T08:36:00;5.02;76.30
66752;SHT31;53663;42.676;23.238;2022-12-18T08:38:25;5.05;76.02
66752;SHT31;53663;42.676;23.238;2022-12-18T08:41:06;5.03;76.28
66752;SHT31;53663;42.676;23.238;2022-12-18T08:43:32;4.99;75.46
66752;SHT31;53663;42.676;23.238;2022-12-18T08:46:16;4.99;75.41
66752;SHT31;53663;42.676;23.238;2022-12-18T08:48:42;4.97;75.42
66752;SHT31;53663;42.676;23.238;2022-12-18T08:51:09;4.76;76.19
66752;SHT31;53663;42.676;23.238;2022-12-18T08:53:35;4.72;76.64
66752;SHT31;53663;42.676;23.238;2022-12-18T08:56:01;4.88;75.61
66752;SHT31;53663;42.676;23.238;2022-12-18T08:58:27;4.91;75.58
66752;SHT31;53663;42.676;23.238;2022-12-18T09:00:52;4.89;75.65
66752;SHT31;53663;42.676;23.238;2022-12-18T09:03:19;4.89;75.29
66752;SHT31;53663;42.676;23.238;2022-12-18T09:05:48;4.78;75.27
66752;SHT31;53663;42.676;23.238;2022-12-18T09:08:13;4.64;76.41
66752;SHT31;53663;42.676;23.238;2022-12-18T09:10:43;4.60;76.64
66752;SHT31;53663;42.676;23.238;2022-12-18T09:13:10;4.69;76.15
66752;SHT31;53663;42.676;23.238;2022-12-18T09:15:47;4.79;75.85
66752;SHT31;53663;42.676;23.238;2022-12-18T09:18:14;4.86;75.69
66752;SHT31;53663;42.676;23.238;2022-12-18T09:20:39;4.76;75.41
66752;SHT31;53663;42.676;23.238;2022-12-18T09:23:06;4.78;75.38
66752;SHT31;53663;42.676;23.238;2022-12-18T09:25:32;4.64;76.28
66752;SHT31;53663;42.676;23.238;2022-12-18T09:28:03;4.72;76.20
66752;SHT31;53663;42.676;23.238;2022-12-18T09:30:28;4.82;75.71
66752;SHT31;53663;42.676;23.238;2022-12-18T09:32:55;4.91;74.87
66752;SHT31;53663;42.676;23.238;2022-12-18T09:35:20;4.86;74.75
66752;SHT31;53663;42.676;23.238;2022-12-18T09:37:46;4.93;75.11
66752;SHT31;53663;42.676;23.238;2022-12-18T09:40:16;4.93;74.89
66752;SHT31;53663;42.676;23.238;2022-12-18T09:42:48;4.93;74.81
66752;SHT31;53663;42.676;23.238;2022-12-18T09:45:17;4.99;75.07
66752;SHT31;53663;42.676;23.238;2022-12-18T09:47:45;5.08;74.81
66752;SHT31;53663;42.676;23.238;2022-12-18T09:50:34;5.16;74.28
66752;SHT31;53663;42.676;23.238;2022-12-18T09:53:15;5.13;74.50
66752;SHT31;53663;42.676;23.238;2022-12-18T09:55:46;5.08;74.04
66752;SHT31;53663;42.676;23.238;2022-12-18T09:58:20;5.15;73.17
66752;SHT31;53663;42.676;23.238;2022-12-18T10:00:51;5.09;73.84
66752;SHT31;53663;42.676;23.238;2022-12-18T10:03:17;5.12;73.40
66752;SHT31;53663;42.676;23.238;2022-12-18T10:05:55;5.22;73.34
66752;SHT31;53663;42.676;23.238;2022-12-18T10:08:48;5.16;73.26
66752;SHT31;53663;42.676;23.238;2022-12-18T10:14:21;5.24;72.52
66752;SHT31;53663;42.676;23.238;2022-12-18T10:17:10;5.26;72.56
66752;SHT31;53663;42.676;23.238;2022-12-18T10:19:43;5.24;72.38
66752;SHT31;53663;42.676;23.238;2022-12-18T10:22:39;5.15;72.23
66752;SHT31;53663;42.676;23.238;2022-12-18T10:25:40;5.19;71.58
66752;SHT31;53663;42.676;23.238;2022-12-18T10:28:13;5.20;71.58
66752;SHT31;53663;42.676;23.238;2022-12-18T10:30:40;5.19;71.60
66752;SHT31;53663;42.676;23.238;2022-12-18T10:33:19;5.10;71.94
66752;SHT31;53663;42.676;23.238;2022-12-18T10:35:45;5.12;71.87
66752;SHT31;53663;42.676;23.238;2022-12-18T10:43:27;5.19;70.72
66752;SHT31;53663;42.676;23.238;2022-12-18T10:46:11;5.27;70.97
66752;SHT31;53663;42.676;23.238;2022-12-18T10:51:25;5.40;70.26
66752;SHT31;53663;42.676;23.238;2022-12-18T10:56:40;5.34;69.55
66752;SHT31;53663;42.676;23.238;2022-12-18T10:59:08;5.41;70.19
66752;SHT31;53663;42.676;23.238;2022-12-18T11:01:49;5.55;69.79
66752;SHT31;53663;42.676;23.238;2022-12-18T11:04:24;5.51;70.30
66752;SHT31;53663;42.676;23.238;2022-12-18T11:06:59;5.58;69.88
66752;SHT31;53663;42.676;23.238;2022-12-18T11:09:27;5.58;69.90
66752;SHT31;53663;42.676;23.238;2022-12-18T11:11:55;5.55;67.96
66752;SHT31;53663;42.676;23.238;2022-12-18T11:14:54;5.55;68.86
66752;SHT31;53663;42.676;23.238;2022-12-18T11:17:32;5.51;68.27
66752;SHT31;53663;42.676;23.238;2022-12-18T11:20:05;5.40;67.90
66752;SHT31;53663;42.676;23.238;2022-12-18T11:22:35;5.43;67.72
66752;SHT31;53663;42.676;23.238;2022-12-18T11:25:16;5.47;67.39
66752;SHT31;53663;42.676;23.238;2022-12-18T11:27:47;5.33;66.05
66752;SHT31;53663;42.676;23.238;2022-12-18T11:32:47;5.26;66.83
66752;SHT31;53663;42.676;23.238;2022-12-18T11:37:41;5.24;67.28
66752;SHT31;53663;42.676;23.238;2022-12-18T11:40:15;5.30;67.18
66752;SHT31;53663;42.676;23.238;2022-12-18T11:42:49;5.19;67.73
66752;SHT31;53663;42.676;23.238;2022-12-18T11:45:27;5.23;67.48
66752;SHT31;53663;42.676;23.238;2022-12-18T11:48:17;5.19;66.91
66752;SHT31;53663;42.676;23.238;2022-12-18T11:53:14;5.10;67.10
66752;SHT31;53663;42.676;23.238;2022-12-18T12:22:20;5.47;66.43
66752;SHT31;53663;42.676;23.238;2022-12-18T12:25:28;5.37;66.08
66752;SHT31;53663;42.676;23.238;2022-12-18T12:31:04;5.47;67.26
66752;SHT31;53663;42.676;23.238;2022-12-18T12:36:41;5.46;67.58
66752;SHT31;53663;42.676;23.238;2022-12-18T12:39:16;5.39;68.16
66752;SHT31;53663;42.676;23.238;2022-12-18T12:41:45;5.33;68.27
66752;SHT31;53663;42.676;23.238;2022-12-18T12:44:35;5.44;68.60
66752;SHT31;53663;42.676;23.238;2022-12-18T12:49:50;5.43;68.24
66752;SHT31;53663;42.676;23.238;2022-12-18T12:52:38;5.48;68.53
66752;SHT31;53663;42.676;23.238;2022-12-18T12:55:07;5.51;68.38
66752;SHT31;53663;42.676;23.238;2022-12-18T12:57:40;5.55;68.46
66752;SHT31;53663;42.676;23.238;2022-12-18T13:00:13;5.50;68.51
66752;SHT31;53663;42.676;23.238;2022-12-18T13:02:41;5.44;67.94
66752;SHT31;53663;42.676;23.238;2022-12-18T13:07:51;5.51;68.49
66752;SHT31;53663;42.676;23.238;2022-12-18T13:36:44;5.46;68.73
66752;SHT31;53663;42.676;23.238;2022-12-18T13:41:35;5.39;68.80
66752;SHT31;53663;42.676;23.238;2022-12-18T13:44:33;5.41;68.72
66752;SHT31;53663;42.676;23.238;2022-12-18T13:47:00;5.44;68.71
66752;SHT31;53663;42.676;23.238;2022-12-18T13:49:39;5.47;68.24
66752;SHT31;53663;42.676;23.238;2022-12-18T13:52:20;5.44;68.07
66752;SHT31;53663;42.676;23.238;2022-12-18T13:54:57;5.36;69.20
66752;SHT31;53663;42.676;23.238;2022-12-18T13:57:38;5.47;69.30
66752;SHT31;53663;42.676;23.238;2022-12-18T14:02:48;5.50;68.19
66752;SHT31;53663;42.676;23.238;2022-12-18T14:05:28;5.41;67.49
66752;SHT31;53663;42.676;23.238;2022-12-18T14:08:01;5.40;67.76
66752;SHT31;53663;42.676;23.238;2022-12-18T14:10:27;5.46;67.23
66752;SHT31;53663;42.676;23.238;2022-12-18T14:12:53;5.47;67.54
66752;SHT31;53663;42.676;23.238;2022-12-18T14:20:17;5.40;66.60
66752;SHT31;53663;42.676;23.238;2022-12-18T14:22:48;5.31;66.39
66752;SHT31;53663;42.676;23.238;2022-12-18T14:25:22;5.27;66.13
66752;SHT31;53663;42.676;23.238;2022-12-18T14:27:53;5.23;66.63
66752;SHT31;53663;42.676;23.238;2022-12-18T14:30:32;5.19;66.92
66752;SHT31;53663;42.676;23.238;2022-12-18T14:33:05;5.13;66.46
66752;SHT31;53663;42.676;23.238;2022-12-18T14:35:36;5.02;66.87
66752;SHT31;53663;42.676;23.238;2022-12-18T14:41:04;5.13;66.12
66752;SHT31;53663;42.676;23.238;2022-12-18T14:43:35;5.18;65.74
66752;SHT31;53663;42.676;23.238;2022-12-18T14:46:02;5.18;66.04
66752;SHT31;53663;42.676;23.238;2022-12-18T14:48:40;5.13;65.91
66752;SHT31;53663;42.676;23.238;2022-12-18T14:53:43;5.27;66.81
66752;SHT31;53663;42.676;23.238;2022-12-18T14:56:16;5.33;65.83
66752;SHT31;53663;42.676;23.238;2022-12-18T14:58:50;5.34;66.65
66752;SHT31;53663;42.676;23.238;2022-12-18T15:03:55;5.31;66.58
66752;SHT31;53663;42.676;23.238;2022-12-18T15:06:36;5.20;65.34
66752;SHT31;53663;42.676;23.238;2022-12-18T15:09:22;5.13;66.03
66752;SHT31;53663;42.676;23.238;2022-12-18T15:11:48;5.12;65.82
66752;SHT31;53663;42.676;23.238;2022-12-18T15:14:38;5.03;65.73
66752;SHT31;53663;42.676;23.238;2022-12-18T15:17:22;4.91;66.08
66752;SHT31;53663;42.676;23.238;2022-12-18T15:19:51;4.91;65.67
66752;SHT31;53663;42.676;23.238;2022-12-18T15:24:45;4.79;66.36
66752;SHT31;53663;42.676;23.238;2022-12-18T15:32:37;4.75;66.90
66752;SHT31;53663;42.676;23.238;2022-12-18T15:37:35;4.85;66.46
66752;SHT31;53663;42.676;23.238;2022-12-18T15:40:00;4.82;66.09
66752;SHT31;53663;42.676;23.238;2022-12-18T15:42:28;4.83;66.60
66752;SHT31;53663;42.676;23.238;2022-12-18T15:45:12;4.79;66.42
66752;SHT31;53663;42.676;23.238;2022-12-18T15:47:38;4.73;65.96
66752;SHT31;53663;42.676;23.238;2022-12-18T15:50:05;4.79;66.49
66752;SHT31;53663;42.676;23.238;2022-12-18T15:52:39;4.81;66.12
66752;SHT31;53663;42.676;23.238;2022-12-18T15:55:10;4.78;65.37
66752;SHT31;53663;42.676;23.238;2022-12-18T15:57:54;4.75;64.50
66752;SHT31;53663;42.676;23.238;2022-12-18T16:00:19;4.68;65.00
66752;SHT31;53663;42.676;23.238;2022-12-18T16:02:45;4.52;65.08
66752;SHT31;53663;42.676;23.238;2022-12-18T16:05:15;4.57;65.66
66752;SHT31;53663;42.676;23.238;2022-12-18T16:07:42;4.57;65.79
66752;SHT31;53663;42.676;23.238;2022-12-18T16:10:08;4.58;66.15
66752;SHT31;53663;42.676;23.238;2022-12-18T16:12:35;4.65;65.58
66752;SHT31;53663;42.676;23.238;2022-12-18T16:15:01;4.58;65.03
66752;SHT31;53663;42.676;23.238;2022-12-18T16:17:26;4.50;64.75
66752;SHT31;53663;42.676;23.238;2022-12-18T16:19:52;4.43;65.66
66752;SHT31;53663;42.676;23.238;2022-12-18T16:22:23;4.51;65.65
66752;SHT31;53663;42.676;23.238;2022-12-18T16:24:51;4.44;65.77
66752;SHT31;53663;42.676;23.238;2022-12-18T16:27:17;4.45;65.79
66752;SHT31;53663;42.676;23.238;2022-12-18T16:29:43;4.48;65.71
66752;SHT31;53663;42.676;23.238;2022-12-18T16:32:13;4.50;65.74
66752;SHT31;53663;42.676;23.238;2022-12-18T16:34:39;4.50;66.14
66752;SHT31;53663;42.676;23.238;2022-12-18T16:37:06;4.55;65.68
66752;SHT31;53663;42.676;23.238;2022-12-18T16:39:33;4.48;66.05
66752;SHT31;53663;42.676;23.238;2022-12-18T16:42:00;4.48;66.04
66752;SHT31;53663;42.676;23.238;2022-12-18T16:44:26;4.50;66.13
66752;SHT31;53663;42.676;23.238;2022-12-18T16:46:51;4.44;64.87
66752;SHT31;53663;42.676;23.238;2022-12-18T16:49:18;4.21;65.72
66752;SHT31;53663;42.676;23.238;2022-12-18T16:51:45;4.24;65.54
66752;SHT31;53663;42.676;23.238;2022-12-18T16:54:11;4.25;65.64
66752;SHT31;53663;42.676;23.238;2022-12-18T16:56:37;4.20;65.77
66752;SHT31;53663;42.676;23.238;2022-12-18T16:59:04;4.16;65.36
66752;SHT31;53663;42.676;23.238;2022-12-18T17:01:31;4.20;65.44
66752;SHT31;53663;42.676;23.238;2022-12-18T17:03:59;4.16;65.85
66752;SHT31;53663;42.676;23.238;2022-12-18T17:06:27;4.14;65.96
66752;SHT31;53663;42.676;23.238;2022-12-18T17:08:56;4.11;65.88
66752;SHT31;53663;42.676;23.238;2022-12-18T17:11:26;4.02;65.71
66752;SHT31;53663;42.676;23.238;2022-12-18T17:13:52;4.07;65.92
66752;SHT31;53663;42.676;23.238;2022-12-18T17:16:18;4.02;65.71
66752;SHT31;53663;42.676;23.238;2022-12-18T17:18:44;4.00;65.49
66752;SHT31;53663;42.676;23.238;2022-12-18T17:21:10;3.93;66.13
66752;SHT31;53663;42.676;23.238;2022-12-18T17:23:37;3.94;66.20
66752;SHT31;53663;42.676;23.238;2022-12-18T17:26:03;3.89;66.22
66752;SHT31;53663;42.676;23.238;2022-12-18T17:28:31;3.90;66.17
66752;SHT31;53663;42.676;23.238;2022-12-18T17:30:57;3.82;66.55
66752;SHT31;53663;42.676;23.238;2022-12-18T17:33:23;3.83;67.02
66752;SHT31;53663;42.676;23.238;2022-12-18T17:35:49;3.79;66.90
66752;SHT31;53663;42.676;23.238;2022-12-18T17:38:15;3.81;66.80
66752;SHT31;53663;42.676;23.238;2022-12-18T17:40:41;3.82;66.96
66752;SHT31;53663;42.676;23.238;2022-12-18T17:43:07;3.85;66.85
66752;SHT31;53663;42.676;23.238;2022-12-18T17:45:38;3.86;66.50
66752;SHT31;53663;42.676;23.238;2022-12-18T17:48:04;3.85;66.51
66752;SHT31;53663;42.676;23.238;2022-12-18T17:50:33;3.85;66.72
66752;SHT31;53663;42.676;23.238;2022-12-18T17:52:59;3.85;66.59
66752;SHT31;53663;42.676;23.238;2022-12-18T17:55:26;3.89;66.21
66752;SHT31;53663;42.676;23.238;2022-12-18T17:57:52;3.92;65.70
66752;SHT31;53663;42.676;23.238;2022-12-18T18:00:18;3.92;65.82